createdAt,value
2022-11-05T00:01:50.557Z,101241.69
2022-11-05T00:04:36.956Z,101239.84
2022-11-05T00:07:30.387Z,101255.72
2022-11-05T00:10:03.853Z,101252.19
2022-11-05T00:12:52.082Z,101249.19
2022-11-05T00:15:37.771Z,101236.63
2022-11-05T00:18:06.353Z,101241.16
2022-11-05T00:20:34.840Z,101235.50
2022-11-05T00:23:23.637Z,101237.94
2022-11-05T00:26:14.131Z,101236.09
2022-11-05T00:28:46.001Z,101227.03
2022-11-05T00:31:15.561Z,101223.22
2022-11-05T00:33:45.083Z,101223.22
2022-11-05T00:36:13.443Z,101217.84
2022-11-05T00:38:41.998Z,101223.94
2022-11-05T00:41:11.657Z,101225.91
2022-11-05T00:43:57.338Z,101218.13
2022-11-05T00:46:27.275Z,101215.13
2022-11-05T00:49:15.906Z,101220.38
2022-11-05T00:51:44.075Z,101212.84
2022-11-05T00:54:12.459Z,101214.81
2022-11-05T00:56:40.856Z,101206.16
2022-11-05T00:59:09.014Z,101195.41
2022-11-05T01:01:39.411Z,101194.72
2022-11-05T01:04:07.664Z,101193.13
2022-11-05T01:06:35.804Z,101183.97
2022-11-05T01:09:04.026Z,101183.97
2022-11-05T01:11:35.433Z,101185.66
2022-11-05T01:14:06.368Z,101184.97
2022-11-05T01:16:34.616Z,101179.69
2022-11-05T01:19:05.672Z,101182.28
2022-11-05T01:21:34.623Z,101172.50
2022-11-05T01:24:03.569Z,101172.09
2022-11-05T01:26:32.308Z,101177.75
2022-11-05T01:29:01.832Z,101172.38
2022-11-05T01:31:30.126Z,101175.06
2022-11-05T01:33:58.690Z,101165.31
2022-11-05T01:36:28.313Z,101165.31
2022-11-05T01:38:56.878Z,101159.63
2022-11-05T01:41:24.992Z,101154.16
2022-11-05T01:43:55.161Z,101143.25
2022-11-05T01:46:30.034Z,101151.31
2022-11-05T01:49:03.362Z,101152.03
2022-11-05T01:51:33.538Z,101145.53
2022-11-05T01:54:04.366Z,101136.88
2022-11-05T01:56:38.105Z,101132.22
2022-11-05T01:59:12.987Z,101137.59
2022-11-05T02:01:41.227Z,101128.84
2022-11-05T02:04:12.861Z,101135.06
2022-11-05T02:06:46.477Z,101137.75
2022-11-05T02:09:19.429Z,101132.66
2022-11-05T02:11:49.555Z,101137.88
2022-11-05T02:14:18.407Z,101137.88
2022-11-05T02:16:52.320Z,101137.03
2022-11-05T02:19:53.297Z,101135.34
2022-11-05T02:22:48.916Z,101137.03
2022-11-05T02:25:37.221Z,101133.34
2022-11-05T02:28:30.106Z,101132.94
2022-11-05T02:31:06.175Z,101124.16
2022-11-05T02:33:43.114Z,101124.63
2022-11-05T02:36:28.505Z,101121.66
2022-11-05T02:39:07.240Z,101120.66
2022-11-05T02:41:44.670Z,101138.50
2022-11-05T02:44:23.442Z,101128.59
2022-11-05T02:47:00.015Z,101125.06
2022-11-05T02:49:39.480Z,101124.31
2022-11-05T02:52:14.833Z,101126.31
2022-11-05T02:54:49.013Z,101132.69
2022-11-05T02:57:20.581Z,101126.00
2022-11-05T02:59:48.821Z,101129.09
2022-11-05T03:02:18.850Z,101124.59
2022-11-05T03:04:47.420Z,101116.66
2022-11-05T03:07:29.737Z,101125.44
2022-11-05T03:10:20.915Z,101119.78
2022-11-05T03:13:01.046Z,101109.75
2022-11-05T03:15:41.885Z,101110.19
2022-11-05T03:18:16.196Z,101104.66
2022-11-05T03:20:50.822Z,101090.13
2022-11-05T03:23:26.858Z,101092.50
2022-11-05T03:26:00.699Z,101093.50
2022-11-05T03:28:32.475Z,101084.44
2022-11-05T03:31:02.848Z,101087.03
2022-11-05T03:33:36.836Z,101084.88
2022-11-05T03:36:11.669Z,101086.47
2022-11-05T03:38:45.063Z,101081.19
2022-11-05T03:41:17.348Z,101077.41
2022-11-05T03:43:50.805Z,101078.25
2022-11-05T03:46:23.009Z,101068.34
2022-11-05T03:48:56.313Z,101064.38
2022-11-05T03:51:34.232Z,101062.53
2022-11-05T03:54:05.511Z,101063.38
2022-11-05T03:56:39.771Z,101051.09
2022-11-05T03:59:10.306Z,101054.47
2022-11-05T04:01:39.104Z,101042.88
2022-11-05T04:04:09.736Z,101041.75
2022-11-05T04:06:55.386Z,101038.34
2022-11-05T04:09:40.989Z,101024.47
2022-11-05T04:12:28.091Z,101022.47
2022-11-05T04:14:56.245Z,101019.09
2022-11-05T04:17:23.414Z,101022.78
2022-11-05T04:20:10.534Z,101019.38
2022-11-05T04:22:56.322Z,101014.56
2022-11-05T04:25:24.502Z,101014.88
2022-11-05T04:27:52.712Z,101018.09
2022-11-05T04:30:20.616Z,101014.88
2022-11-05T04:33:03.606Z,101015.13
2022-11-05T04:35:35.527Z,101012.72
2022-11-05T04:38:04.919Z,101007.34
2022-11-05T04:40:32.983Z,100999.28
2022-11-05T04:43:01.559Z,101008.75
2022-11-05T04:45:31.376Z,100999.88
2022-11-05T04:47:59.480Z,101004.53
2022-11-05T04:50:27.864Z,101002.69
2022-11-05T04:52:57.417Z,101007.94
2022-11-05T04:55:25.736Z,100999.00
2022-11-05T04:57:55.322Z,100987.00
2022-11-05T05:00:25.444Z,100988.69
2022-11-05T05:02:53.531Z,100982.47
2022-11-05T05:05:23.389Z,100976.94
2022-11-05T05:07:51.503Z,100979.50
2022-11-05T05:10:21.131Z,100972.72
2022-11-05T05:12:49.291Z,100973.13
2022-11-05T05:15:17.559Z,100965.59
2022-11-05T05:17:45.652Z,100966.34
2022-11-05T05:20:31.097Z,100965.06
2022-11-05T05:22:59.093Z,100964.91
2022-11-05T05:25:29.005Z,100962.22
2022-11-05T05:27:59.078Z,100962.38
2022-11-05T05:30:27.507Z,100952.47
2022-11-05T05:32:55.555Z,100951.31
2022-11-05T05:35:23.599Z,100944.25
2022-11-05T05:37:56.223Z,100942.56
2022-11-05T05:40:25.440Z,100947.94
2022-11-05T05:42:56.545Z,100951.19
2022-11-05T05:45:24.848Z,100941.72
2022-11-05T05:47:53.225Z,100936.19
2022-11-05T05:50:21.264Z,100931.53
2022-11-05T05:52:49.364Z,100940.56
2022-11-05T05:55:20.710Z,100937.03
2022-11-05T05:57:48.862Z,100922.88
2022-11-05T06:00:18.786Z,100931.06
2022-11-05T06:02:47.275Z,100915.25
2022-11-05T06:05:15.635Z,100917.63
2022-11-05T06:07:43.729Z,100914.25
2022-11-05T06:10:11.830Z,100909.03
2022-11-05T06:12:40.004Z,100906.19
2022-11-05T06:15:08.997Z,100903.66
2022-11-05T06:17:38.553Z,100900.81
2022-11-05T06:20:09.044Z,100898.28
2022-11-05T06:22:37.164Z,100901.09
2022-11-05T06:25:06.222Z,100900.25
2022-11-05T06:27:34.830Z,100907.03
2022-11-05T06:30:03.031Z,100902.09
2022-11-05T06:32:31.944Z,100905.75
2022-11-05T06:35:01.641Z,100900.09
2022-11-05T06:37:29.807Z,100889.47
2022-11-05T06:39:59.079Z,100895.69
2022-11-05T06:42:28.263Z,100888.50
2022-11-05T06:44:56.264Z,100892.72
2022-11-05T06:47:24.347Z,100897.09
2022-11-05T06:49:52.433Z,100896.97
2022-11-05T06:52:22.465Z,100889.75
2022-11-05T06:54:50.788Z,100891.16
2022-11-05T06:57:19.126Z,100894.81
2022-11-05T06:59:47.287Z,100878.69
2022-11-05T07:02:15.722Z,100879.25
2022-11-05T07:04:43.840Z,100867.66
2022-11-05T07:07:11.949Z,100872.03
2022-11-05T07:09:43.295Z,100869.50
2022-11-05T07:12:11.260Z,100871.63
2022-11-05T07:14:39.485Z,100862.56
2022-11-05T07:17:08.254Z,100862.88
2022-11-05T07:19:36.458Z,100871.91
2022-11-05T07:22:04.776Z,100865.84
2022-11-05T07:24:32.905Z,100858.47
2022-11-05T07:27:02.362Z,100861.16
2022-11-05T07:29:30.576Z,100859.34
2022-11-05T07:31:58.636Z,100858.19
2022-11-05T07:34:29.351Z,100852.97
2022-11-05T07:36:57.410Z,100843.03
2022-11-05T07:39:25.764Z,100847.28
2022-11-05T07:41:55.094Z,100842.03
2022-11-05T07:44:24.728Z,100843.75
2022-11-05T07:46:53.116Z,100839.91
2022-11-05T07:49:21.103Z,100836.06
2022-11-05T07:51:49.209Z,100829.84
2022-11-05T07:54:17.354Z,100824.63
2022-11-05T07:56:48.240Z,100825.88
2022-11-05T07:59:16.485Z,100821.66
2022-11-05T08:01:46.109Z,100831.94
2022-11-05T08:04:14.336Z,100829.13
2022-11-05T08:06:42.563Z,100820.34
2022-11-05T08:09:10.952Z,100816.69
2022-11-05T08:11:39.039Z,100807.28
2022-11-05T08:14:09.977Z,100804.59
2022-11-05T08:16:40.943Z,100796.25
2022-11-05T08:19:10.694Z,100790.25
2022-11-05T08:21:38.856Z,100787.28
2022-11-05T08:24:10.242Z,100786.66
2022-11-05T08:26:38.613Z,100797.00
2022-11-05T08:29:07.510Z,100824.31
2022-11-05T08:31:37.230Z,100831.84
2022-11-05T08:34:05.389Z,100829.44
2022-11-05T08:36:36.434Z,100824.34
2022-11-05T08:39:04.787Z,100809.47
2022-11-05T08:41:33.895Z,100785.28
2022-11-05T08:44:06.859Z,100789.06
2022-11-05T08:46:41.395Z,100786.25
2022-11-05T08:49:10.311Z,100780.25
2022-11-05T08:51:40.143Z,100780.13
2022-11-05T08:54:08.495Z,100796.97
2022-11-05T08:56:36.805Z,100812.56
2022-11-05T08:59:04.920Z,100793.72
2022-11-05T09:01:34.603Z,100792.75
2022-11-05T09:04:02.755Z,100786.81
2022-11-05T09:06:30.840Z,100783.66
2022-11-05T09:09:00.249Z,100793.81
2022-11-05T09:11:49.718Z,100781.38
2022-11-05T09:14:16.528Z,100777.22
2022-11-05T09:16:44.534Z,100772.50
2022-11-05T09:21:55.179Z,100757.16
2022-11-05T09:24:25.069Z,100755.81
2022-11-05T09:26:53.648Z,100749.13
2022-11-05T09:29:21.916Z,100757.59
2022-11-05T09:31:50.195Z,100753.31
2022-11-05T09:34:18.264Z,100747.75
2022-11-05T09:36:46.474Z,100746.75
2022-11-05T09:39:14.818Z,100739.88
2022-11-05T09:41:45.284Z,100736.72
2022-11-05T09:44:17.082Z,100726.50
2022-11-05T09:46:47.948Z,100724.81
2022-11-05T09:49:25.806Z,100706.97
2022-11-05T09:51:55.459Z,100695.47
2022-11-05T09:54:26.067Z,100697.53
2022-11-05T09:56:57.014Z,100695.47
2022-11-05T09:59:29.642Z,100699.88
2022-11-05T10:02:04.319Z,100690.56
2022-11-05T10:04:35.749Z,100690.75
2022-11-05T10:07:07.765Z,100695.44
2022-11-05T10:09:40.215Z,100692.75
2022-11-05T10:12:17.977Z,100695.44
2022-11-05T10:14:52.890Z,100684.66
2022-11-05T10:17:26.098Z,100691.75
2022-11-05T10:20:01.840Z,100677.94
2022-11-05T10:25:19.942Z,100658.78
2022-11-05T10:31:22.205Z,100672.47
2022-11-05T10:34:15.870Z,100666.94
2022-11-05T10:37:48.802Z,100658.16
2022-11-05T10:40:56.265Z,100654.44
2022-11-05T10:43:33.798Z,100646.38
2022-11-05T10:47:09.699Z,100636.28
2022-11-05T10:49:53.715Z,100650.44
2022-11-05T10:52:25.561Z,100631.28
2022-11-05T10:55:03.352Z,100645.59
2022-11-05T10:57:36.563Z,100624.88
2022-11-05T11:00:28.571Z,100637.34
2022-11-05T11:03:01.468Z,100627.25
2022-11-05T11:05:32.901Z,100629.94
2022-11-05T11:08:18.823Z,100622.88
2022-11-05T11:10:53.285Z,100625.41
2022-11-05T11:13:23.642Z,100616.00
2022-11-05T11:15:52.009Z,100606.06
2022-11-05T11:18:32.465Z,100606.75
2022-11-05T11:21:08.788Z,100606.25
2022-11-05T11:23:41.229Z,100609.78
2022-11-05T11:26:13.263Z,100600.88
2022-11-05T11:28:57.867Z,100604.94
2022-11-05T11:31:31.213Z,100588.59
2022-11-05T11:34:05.961Z,100590.31
2022-11-05T11:37:20.752Z,100585.44
2022-11-05T11:39:53.774Z,100581.72
2022-11-05T11:42:49.092Z,100579.56
2022-11-05T11:45:25.563Z,100581.94
2022-11-05T11:47:57.682Z,100582.31
2022-11-05T11:50:38.912Z,100580.75
2022-11-05T11:53:36.832Z,100567.28
2022-11-05T11:56:19.747Z,100574.53
2022-11-05T11:58:57.146Z,100573.19
2022-11-05T12:01:43.923Z,100573.38
2022-11-05T12:04:24.453Z,100567.00
2022-11-05T12:07:03.581Z,100569.22
2022-11-05T12:10:00.785Z,100555.06
2022-11-05T12:12:38.232Z,100547.13
2022-11-05T12:15:49.180Z,100553.91
2022-11-05T12:18:26.326Z,100552.88
2022-11-05T12:21:34.847Z,100546.31
2022-11-05T12:24:27.560Z,100541.41
2022-11-05T12:27:16.048Z,100526.94
2022-11-05T12:29:54.872Z,100540.91
2022-11-05T12:32:57.509Z,100536.88
2022-11-05T12:35:47.435Z,100535.84
2022-11-05T12:38:45.767Z,100529.81
2022-11-05T12:41:27.044Z,100538.22
2022-11-05T12:44:31.272Z,100532.19
2022-11-05T12:47:14.847Z,100530.84
2022-11-05T12:50:01.358Z,100535.53
2022-11-05T12:52:55.695Z,100527.13
2022-11-05T12:55:26.643Z,100536.56
2022-11-05T12:57:59.379Z,100533.88
2022-11-05T13:00:29.264Z,100524.41
2022-11-05T13:03:09.829Z,100526.13
2022-11-05T13:05:43.998Z,100534.22
2022-11-05T13:08:17.328Z,100527.78
2022-11-05T13:10:52.127Z,100532.81
2022-11-05T13:13:28.863Z,100522.41
2022-11-05T13:16:01.691Z,100514.44
2022-11-05T13:18:34.402Z,100513.28
2022-11-05T13:21:09.197Z,100517.16
2022-11-05T13:23:43.042Z,100518.69
2022-11-05T13:26:19.984Z,100516.16
2022-11-05T13:28:55.201Z,100506.03
2022-11-05T13:31:50.752Z,100506.19
2022-11-05T13:34:24.315Z,100503.84
2022-11-05T13:37:15.353Z,100499.28
2022-11-05T13:39:53.099Z,100504.16
2022-11-05T13:42:53.330Z,100500.59
2022-11-05T13:46:05.945Z,100485.91
2022-11-05T13:49:00.088Z,100497.69
2022-11-05T13:51:46.643Z,100497.16
2022-11-05T13:54:46.261Z,100485.19
2022-11-05T13:57:51.700Z,100492.06
2022-11-05T14:00:22.093Z,100486.19
2022-11-05T14:02:53.673Z,100484.69
2022-11-05T14:05:28.587Z,100491.25
2022-11-05T14:07:59.013Z,100495.31
2022-11-05T14:10:38.467Z,100509.69
2022-11-05T14:13:25.000Z,100500.25
2022-11-05T14:16:07.165Z,100492.47
2022-11-05T14:18:58.527Z,100510.22
2022-11-05T14:22:14.672Z,100489.31
2022-11-05T14:24:45.860Z,100490.16
2022-11-05T14:27:58.324Z,100484.81
2022-11-05T14:34:02.436Z,100478.84
2022-11-05T14:36:46.845Z,100483.06
2022-11-05T14:39:35.108Z,100487.28
2022-11-05T14:42:11.762Z,100488.94
2022-11-05T14:45:22.236Z,100491.13
2022-11-05T14:51:41.685Z,100490.94
2022-11-05T14:54:34.269Z,100498.06
2022-11-05T14:57:05.640Z,100498.72
2022-11-05T14:59:53.240Z,100490.59
2022-11-05T15:02:25.479Z,100488.75
2022-11-05T15:05:35.261Z,100504.13
2022-11-05T15:08:35.308Z,100508.88
2022-11-05T15:11:23.321Z,100504.47
2022-11-05T15:14:04.209Z,100504.50
2022-11-05T15:16:37.298Z,100508.53
2022-11-05T15:19:06.661Z,100501.47
2022-11-05T15:21:37.985Z,100507.84
2022-11-05T15:24:11.063Z,100502.75
2022-11-05T15:26:49.333Z,100515.22
2022-11-05T15:29:20.197Z,100511.16
2022-11-05T15:31:56.255Z,100513.34
2022-11-05T15:34:29.204Z,100524.47
2022-11-05T15:43:42.698Z,100522.44
2022-11-05T15:46:32.527Z,100528.34
2022-11-05T15:49:04.428Z,100519.88
2022-11-05T15:51:33.387Z,100523.75
2022-11-05T15:57:40.276Z,100524.94
2022-11-05T16:00:18.185Z,100526.13
2022-11-05T16:02:58.105Z,100530.53
2022-11-05T16:05:28.556Z,100521.97
2022-11-05T16:08:00.893Z,100518.13
2022-11-05T16:10:51.910Z,100523.91
2022-11-05T16:13:36.987Z,100530.66
2022-11-05T16:16:08.025Z,100523.44
2022-11-05T16:18:39.035Z,100523.09
2022-11-05T16:21:09.374Z,100527.78
2022-11-05T16:29:37.991Z,100540.75
2022-11-05T16:32:16.685Z,100534.84
2022-11-05T16:34:56.998Z,100533.66
2022-11-05T16:37:46.337Z,100548.63
2022-11-05T16:40:27.262Z,100543.88
2022-11-05T16:42:56.357Z,100549.91
2022-11-05T16:45:29.443Z,100550.59
2022-11-05T16:47:58.299Z,100546.31
2022-11-05T16:50:28.918Z,100551.03
2022-11-05T16:53:04.970Z,100550.38
2022-11-05T16:55:52.466Z,100556.59
2022-11-05T16:58:23.500Z,100560.63
2022-11-05T17:00:57.622Z,100563.81
2022-11-05T17:21:04.337Z,100568.84
2022-11-05T17:24:31.662Z,100563.56
2022-11-05T17:27:04.283Z,100556.50
2022-11-05T17:29:40.057Z,100555.66
2022-11-05T17:32:17.067Z,100555.44
2022-11-05T17:34:48.270Z,100545.84
2022-11-05T17:37:34.124Z,100550.03
2022-11-05T17:40:13.867Z,100557.09
2022-11-05T17:42:43.000Z,100555.72
2022-11-05T17:45:17.606Z,100548.66
2022-11-05T17:47:54.887Z,100549.28
2022-11-05T18:02:39.532Z,100554.34
2022-11-05T18:05:09.188Z,100541.72
2022-11-05T18:07:38.287Z,100537.53
2022-11-05T18:10:10.986Z,100535.31
2022-11-05T18:15:49.537Z,100532.03
2022-11-05T18:18:24.304Z,100528.59
2022-11-05T18:20:53.972Z,100545.56
2022-11-05T18:40:44.567Z,100552.66
2022-11-05T18:43:15.135Z,100544.59
2022-11-05T18:45:45.835Z,100544.88
2022-11-05T18:54:08.880Z,100557.13
2022-11-05T18:56:45.688Z,100554.88
2022-11-05T18:59:35.972Z,100556.88
2022-11-05T19:02:03.087Z,100555.19
2022-11-05T19:04:31.625Z,100544.75
2022-11-05T19:07:04.817Z,100542.53
2022-11-05T19:09:34.073Z,100547.66
2022-11-05T19:12:04.578Z,100540.22
2022-11-05T19:14:33.117Z,100538.66
2022-11-05T19:17:02.044Z,100541.28
2022-11-05T19:19:30.385Z,100541.56
2022-11-05T19:21:59.236Z,100530.91
2022-11-05T19:24:27.492Z,100535.72
2022-11-05T19:26:55.600Z,100538.00
2022-11-05T19:29:25.875Z,100526.75
2022-11-05T19:31:59.114Z,100537.09
2022-11-05T19:34:46.460Z,100524.81
2022-11-05T19:37:14.910Z,100524.25
2022-11-05T19:39:44.396Z,100520.03
2022-11-05T19:42:13.023Z,100522.31
2022-11-05T19:44:43.397Z,100518.50
2022-11-05T19:47:12.572Z,100515.81
2022-11-05T19:49:51.891Z,100508.53
2022-11-05T19:52:20.370Z,100512.34
2022-11-05T19:54:49.248Z,100514.63
2022-11-05T19:57:17.850Z,100508.03
2022-11-05T19:59:47.694Z,100502.41
2022-11-05T20:02:17.560Z,100499.59
2022-11-05T20:04:46.467Z,100505.56
2022-11-05T20:07:15.241Z,100509.81
2022-11-05T20:09:43.929Z,100500.69
2022-11-05T20:12:13.077Z,100507.59
2022-11-05T20:14:42.267Z,100504.38
2022-11-05T20:17:20.727Z,100496.06
2022-11-05T20:20:14.360Z,100500.03
2022-11-05T20:22:44.250Z,100498.34
2022-11-05T20:25:15.785Z,100502.28
2022-11-05T20:27:48.864Z,100495.25
2022-11-05T20:30:24.516Z,100500.19
2022-11-05T20:32:57.335Z,100501.19
2022-11-05T20:35:26.092Z,100505.44
2022-11-05T20:37:58.617Z,100504.03
2022-11-05T20:40:27.359Z,100505.16
2022-11-05T20:42:56.243Z,100500.19
2022-11-05T20:45:25.138Z,100508.53
2022-11-05T20:47:53.655Z,100517.84
2022-11-05T20:50:23.448Z,100518.13
2022-11-05T20:52:53.177Z,100529.13
2022-11-05T20:58:02.632Z,100520.53
2022-11-05T21:00:31.922Z,100513.59
2022-11-05T21:03:00.377Z,100517.97
2022-11-05T21:05:35.350Z,100515.59
2022-11-05T21:08:04.496Z,100515.88
2022-11-05T21:10:33.119Z,100504.56
2022-11-05T21:13:01.850Z,100497.84
2022-11-05T21:15:31.159Z,100501.34
2022-11-05T21:18:00.090Z,100489.66
2022-11-05T21:20:31.309Z,100494.00
2022-11-05T21:23:00.481Z,100490.34
2022-11-05T21:25:28.839Z,100491.06
2022-11-05T21:27:57.708Z,100490.75
2022-11-05T21:30:26.781Z,100485.81
2022-11-05T21:32:55.057Z,100483.72
2022-11-05T21:35:23.471Z,100472.72
2022-11-05T21:37:53.490Z,100473.28
2022-11-05T21:40:22.441Z,100467.91
2022-11-05T21:42:50.914Z,100460.56
2022-11-05T21:45:19.311Z,100458.88
2022-11-05T21:47:47.839Z,100457.19
2022-11-05T21:50:21.653Z,100464.53
2022-11-05T21:53:07.729Z,100459.44
2022-11-05T21:55:55.143Z,100462.00
2022-11-05T21:58:43.452Z,100453.13
2022-11-05T22:01:14.340Z,100445.19
2022-11-05T22:03:45.677Z,100451.28
2022-11-05T22:06:14.398Z,100459.03
2022-11-05T22:08:47.199Z,100460.84
2022-11-05T22:11:17.056Z,100448.75
2022-11-05T22:13:48.592Z,100448.03
2022-11-05T22:16:16.828Z,100448.19
2022-11-05T22:18:45.536Z,100443.81
2022-11-05T22:21:18.352Z,100438.06
2022-11-05T22:23:46.665Z,100439.00
2022-11-05T22:26:16.632Z,100434.38
2022-11-05T22:28:44.592Z,100434.06
2022-11-05T22:31:16.057Z,100426.03
2022-11-05T22:33:44.342Z,100424.50
2022-11-05T22:36:13.288Z,100426.47
2022-11-05T22:38:41.377Z,100425.63
2022-11-05T22:41:10.634Z,100426.63
2022-11-05T22:43:40.267Z,100422.41
2022-11-05T22:46:11.564Z,100415.47
2022-11-05T22:48:41.148Z,100412.13
2022-11-05T22:51:11.749Z,100405.03
2022-11-05T22:53:40.705Z,100385.75
2022-11-05T22:56:11.669Z,100389.53
2022-11-05T22:58:42.160Z,100384.34
2022-11-05T23:01:12.571Z,100381.81
2022-11-05T23:03:43.257Z,100379.81
2022-11-05T23:06:37.432Z,100385.19
2022-11-05T23:09:30.497Z,100374.47
2022-11-05T23:11:59.722Z,100377.72
2022-11-05T23:14:30.224Z,100370.69
2022-11-05T23:17:15.702Z,100371.38
2022-11-05T23:20:02.923Z,100367.00
2022-11-05T23:22:50.150Z,100370.53
2022-11-05T23:25:24.874Z,100359.41
2022-11-05T23:27:57.338Z,100358.13
2022-11-05T23:30:29.530Z,100355.47
2022-11-05T23:32:57.513Z,100349.25
2022-11-05T23:35:39.807Z,100348.97
2022-11-05T23:38:25.878Z,100341.63
2022-11-05T23:41:11.775Z,100340.06
2022-11-05T23:43:57.350Z,100338.25
2022-11-05T23:46:44.613Z,100320.50
2022-11-05T23:49:16.504Z,100315.81
2022-11-05T23:51:45.084Z,100314.00
2022-11-05T23:54:13.487Z,100314.00
2022-11-05T23:56:42.007Z,100310.47
2022-11-05T23:59:11.497Z,100307.09
